Aviation Digital Data Service (ADDS)

Output produced by METARs form (0813 UTC 24 May 2018)
found at http://www.aviationweather.gov/adds/metars/
 
GABS 240800Z 21007KT CAVOK 30/22 Q1014 NOSIG
TAF GABS 240500Z 2406/2512 20006KT 9999 SCT030 
     TEMPO 2416/2422 TSRA BKN030 FEW040CB
       
TAF GAGO 240500Z 2406/2506 18010G22KT 6000 NSC 
     PROB40 
     TEMPO 2414/2420 2000 TSDU FEW050CB
       
GABS 240800Z 21007KT CAVOK 30/22 Q1014 NOSIG
TAF GABS 240500Z 2406/2512 20006KT 9999 SCT030 
     TEMPO 2416/2422 TSRA BKN030 FEW040CB
       
TAF GAGO 240500Z 2406/2506 18010G22KT 6000 NSC 
     PROB40 
     TEMPO 2414/2420 2000 TSDU FEW050CB
       
GAMB 240600Z 18008KT CAVOK 31/23 Q1010
GANR 240600Z 00000KT CAVOK 32/15 Q1011
GAMB 240600Z 18008KT CAVOK 31/23 Q1010
GANR 240600Z 00000KT CAVOK 32/15 Q1011